Time;durP1;ratioP1;P1;durP2;ratioP2;P2;SDS_P1;SDS_P2;PMS_P1;PMS_P2;Temp;Humidity;BMP_temperature;BMP_pressure;BME280_temperature;BME280_humidity;BME280_pressure;Samples;Min_cycle;Max_cycle;Signal;HPM_P1;HPM_P2
2021/04/02 00:01:40;;;;;;;9.33;4.90;;;13.90;89.90;;;;;;5054205;28;20186;-67
2021/04/02 00:04:06;;;;;;;10.57;4.93;;;13.80;90.70;;;;;;5054261;28;20175;-66
2021/04/02 00:06:32;;;;;;;12.70;5.10;;;13.80;90.70;;;;;;5054296;28;20197;-67
2021/04/02 00:08:58;;;;;;;9.43;4.83;;;13.70;90.80;;;;;;5054227;28;20185;-67
2021/04/02 00:11:24;;;;;;;11.47;5.03;;;13.70;91.00;;;;;;5054155;28;20249;-67
2021/04/02 00:13:50;;;;;;;9.83;5.20;;;13.60;90.40;;;;;;5053975;28;20271;-67
2021/04/02 00:16:18;;;;;;;8.83;5.40;;;13.60;90.60;;;;;;5036131;28;20640;-67
2021/04/02 00:18:44;;;;;;;8.30;4.80;;;13.50;90.50;;;;;;5053700;28;20288;-66
2021/04/02 00:21:12;;;;;;;10.93;5.00;;;13.50;89.80;;;;;;5053661;28;20183;-68
2021/04/02 00:23:38;;;;;;;7.27;5.17;;;13.50;89.20;;;;;;5053870;28;20175;-67
2021/04/02 00:26:08;;;;;;;9.03;4.43;;;13.40;90.00;;;;;;5053740;28;20173;-67
2021/04/02 00:28:34;;;;;;;9.87;4.70;;;13.40;88.50;;;;;;5053825;28;20221;-68
2021/04/02 00:31:00;;;;;;;11.77;4.90;;;13.30;88.40;;;;;;5053744;28;20247;-67
2021/04/02 00:33:30;;;;;;;8.03;4.20;;;13.30;90.00;;;;;;5053825;28;20249;-67
2021/04/02 00:35:57;;;;;;;8.10;4.50;;;13.20;91.50;;;;;;5054113;28;20190;-68
2021/04/02 00:38:22;;;;;;;9.00;4.53;;;13.20;90.70;;;;;;5053565;28;20584;-67
2021/04/02 00:41:00;;;;;;;10.03;4.37;;;13.20;90.10;;;;;;5054071;28;20264;-66
2021/04/02 00:43:29;;;;;;;7.67;3.97;;;13.20;89.50;;;;;;5053474;28;20225;-67
2021/04/02 00:45:55;;;;;;;7.30;4.20;;;13.10;87.80;;;;;;5053508;28;20254;-68
2021/04/02 00:48:21;;;;;;;7.93;4.20;;;13.10;90.10;;;;;;5053326;28;20612;-68
2021/04/02 00:50:54;;;;;;;6.97;4.57;;;13.00;88.60;;;;;;5053308;28;20338;-67
2021/04/02 00:53:25;;;;;;;9.37;4.90;;;12.90;85.30;;;;;;5053207;28;20236;-67
2021/04/02 00:55:51;;;;;;;7.33;3.80;;;12.70;88.00;;;;;;5053332;28;20225;-68
2021/04/02 00:58:20;;;;;;;8.40;4.30;;;12.60;88.30;;;;;;5053211;28;20201;-68
2021/04/02 01:00:46;;;;;;;6.37;3.50;;;12.50;89.20;;;;;;5053205;28;20179;-67
2021/04/02 01:03:14;;;;;;;8.07;4.10;;;12.50;87.80;;;;;;5053273;28;20552;-67
2021/04/02 01:05:45;;;;;;;8.07;4.40;;;12.40;84.40;;;;;;5052448;28;20205;-66
2021/04/02 01:08:17;;;;;;;8.13;3.67;;;12.30;84.70;;;;;;5053104;28;20178;-67
2021/04/02 01:10:44;;;;;;;8.87;3.20;;;12.30;85.40;;;;;;5052941;28;20536;-67
2021/04/02 01:13:18;;;;;;;7.37;3.47;;;12.10;85.40;;;;;;5052745;28;20221;-68
2021/04/02 01:15:52;;;;;;;8.60;4.17;;;12.10;84.10;;;;;;5053014;28;20186;-66
2021/04/02 01:18:31;;;;;;;5.60;3.33;;;12.10;82.80;;;;;;5052855;28;20722;-67
2021/04/02 01:21:00;;;;;;;7.13;3.50;;;12.10;82.70;;;;;;5052635;28;20173;-66
2021/04/02 01:23:34;;;;;;;9.20;3.10;;;12.10;83.40;;;;;;5053325;28;20221;-66
2021/04/02 01:26:41;;;;;;;6.53;3.53;;;12.10;81.10;;;;;;5052575;28;20225;-67
2021/04/02 01:29:29;;;;;;;10.23;3.47;;;12.10;79.90;;;;;;5034208;28;20187;-66
2021/04/02 01:32:00;;;;;;;5.67;2.73;;;12.00;77.60;;;;;;5034549;28;20179;-66
2021/04/02 01:34:33;;;;;;;8.73;3.50;;;12.00;78.60;;;;;;5052499;28;20175;-67
2021/04/02 01:37:13;;;;;;;8.83;3.47;;;12.00;82.10;;;;;;5052524;28;20233;-68
2021/04/02 01:39:42;;;;;;;9.67;3.67;;;11.90;79.10;;;;;;5052551;28;20240;-67
2021/04/02 01:42:12;;;;;;;7.03;3.47;;;11.80;76.80;;;;;;5052311;28;20207;-68
2021/04/02 01:44:40;;;;;;;8.17;3.30;;;11.80;79.60;;;;;;5052521;28;20548;-68
2021/04/02 01:47:07;;;;;;;6.10;2.90;;;11.70;77.70;;;;;;5052110;28;20171;-67
2021/04/02 01:49:34;;;;;;;6.60;3.20;;;11.60;79.50;;;;;;5052508;28;20250;-68
2021/04/02 01:52:00;;;;;;;6.80;3.53;;;11.60;78.60;;;;;;5034213;28;20214;-67
2021/04/02 01:54:27;;;;;;;6.60;3.30;;;11.50;78.30;;;;;;5052342;28;20191;-66
2021/04/02 01:56:53;;;;;;;5.00;2.73;;;11.40;79.80;;;;;;5052099;28;20579;-66
2021/04/02 01:59:21;;;;;;;7.97;3.37;;;11.30;79.10;;;;;;5052103;28;20195;-67
2021/04/02 02:01:48;;;;;;;6.57;3.30;;;11.20;79.10;;;;;;5052030;28;20229;-68
2021/04/02 02:04:18;;;;;;;7.57;3.53;;;11.20;80.10;;;;;;5051883;28;20508;-68
2021/04/02 02:06:46;;;;;;;5.00;3.13;;;11.20;78.90;;;;;;5052123;28;20186;-67
2021/04/02 02:09:15;;;;;;;11.03;3.43;;;11.30;77.90;;;;;;5051560;28;20584;-67
2021/04/02 02:11:41;;;;;;;9.33;3.60;;;11.20;78.50;;;;;;5052124;28;20172;-68
2021/04/02 02:14:12;;;;;;;9.47;3.63;;;11.00;77.10;;;;;;5051711;28;20175;-66
2021/04/02 02:16:42;;;;;;;6.80;3.60;;;10.90;80.60;;;;;;5051540;28;20753;-66
2021/04/02 02:19:14;;;;;;;8.17;3.57;;;11.00;82.10;;;;;;5050496;28;20656;-66
2021/04/02 02:21:43;;;;;;;7.33;3.40;;;11.00;79.30;;;;;;5033988;28;20794;-67
2021/04/02 02:24:09;;;;;;;11.77;3.80;;;11.00;80.40;;;;;;5051907;28;20505;-68
2021/04/02 02:26:37;;;;;;;6.90;3.63;;;11.00;80.70;;;;;;5051637;28;20637;-68
2021/04/02 02:29:02;;;;;;;5.93;3.27;;;11.00;79.10;;;;;;5051763;28;20609;-67
2021/04/02 02:31:28;;;;;;;6.23;3.37;;;10.90;77.40;;;;;;5051316;28;20179;-68
2021/04/02 02:33:54;;;;;;;5.87;2.93;;;10.90;76.90;;;;;;5051456;28;20238;-67
2021/04/02 02:36:20;;;;;;;6.80;3.60;;;10.80;78.20;;;;;;5051564;28;20210;-66
2021/04/02 02:38:45;;;;;;;6.67;3.30;;;10.80;78.30;;;;;;5051024;28;20195;-67
2021/04/02 02:41:11;;;;;;;10.10;3.30;;;10.70;79.10;;;;;;5051795;28;20234;-67
2021/04/02 02:43:37;;;;;;;6.03;2.87;;;10.60;78.30;;;;;;5051037;28;20187;-67
2021/04/02 02:46:03;;;;;;;7.83;3.30;;;10.60;78.30;;;;;;5051236;28;20767;-67
2021/04/02 02:48:28;;;;;;;8.03;3.57;;;10.70;81.10;;;;;;5051211;28;20209;-67
2021/04/02 02:50:56;;;;;;;5.40;3.57;;;10.70;80.60;;;;;;5050830;28;20422;-67
2021/04/02 02:53:26;;;;;;;6.23;3.37;;;10.60;79.10;;;;;;5051062;28;20171;-67
2021/04/02 02:55:53;;;;;;;6.67;3.50;;;10.60;79.10;;;;;;5050790;28;20417;-67
2021/04/02 02:58:22;;;;;;;6.53;3.60;;;10.50;81.10;;;;;;5050891;28;20194;-66
2021/04/02 03:00:50;;;;;;;7.13;3.60;;;10.50;80.70;;;;;;5050943;28;20418;-66
2021/04/02 03:03:17;;;;;;;9.90;4.00;;;10.30;79.90;;;;;;5050772;28;20456;-68
2021/04/02 03:05:47;;;;;;;7.10;3.57;;;10.30;81.70;;;;;;5050889;28;20978;-68
2021/04/02 03:08:15;;;;;;;5.20;4.10;;;10.20;84.70;;;;;;5050724;28;20414;-67
2021/04/02 03:10:42;;;;;;;7.50;3.80;;;10.10;83.40;;;;;;5050880;28;20806;-67
2021/04/02 03:13:08;;;;;;;6.20;3.77;;;10.20;84.60;;;;;;5050725;28;20444;-68
2021/04/02 03:15:35;;;;;;;7.33;4.50;;;10.10;83.80;;;;;;5050641;28;20429;-68
2021/04/02 03:18:04;;;;;;;8.63;4.20;;;10.00;85.00;;;;;;5050653;28;20796;-67
2021/04/02 03:20:36;;;;;;;6.87;3.97;;;9.90;86.60;;;;;;5050745;28;20468;-68
2021/04/02 03:23:04;;;;;;;8.53;4.07;;;9.80;85.70;;;;;;5050601;28;20433;-67
2021/04/02 03:25:30;;;;;;;6.43;4.50;;;9.80;87.40;;;;;;5050330;28;20463;-68
2021/04/02 03:27:57;;;;;;;6.20;4.27;;;9.70;89.40;;;;;;5050453;28;20416;-67
2021/04/02 03:30:25;;;;;;;6.87;4.80;;;9.70;87.70;;;;;;5049956;28;20410;-66
2021/04/02 03:32:56;;;;;;;9.47;4.33;;;9.60;89.70;;;;;;5050393;28;20414;-68
2021/04/02 03:35:23;;;;;;;11.33;5.30;;;9.50;90.30;;;;;;5050361;28;20427;-67
2021/04/02 03:37:51;;;;;;;10.20;5.23;;;9.50;91.50;;;;;;5050177;28;20449;-67
2021/04/02 03:40:37;;;;;;;6.67;5.10;;;9.50;90.80;;;;;;5049530;28;21045;-67
2021/04/02 03:43:05;;;;;;;10.33;6.10;;;9.40;91.20;;;;;;5050067;28;20500;-67
2021/04/02 03:45:32;;;;;;;7.43;5.63;;;9.40;92.80;;;;;;5050155;28;20413;-67
2021/04/02 03:48:01;;;;;;;7.10;5.70;;;9.40;92.90;;;;;;5050345;28;20960;-67
2021/04/02 03:50:35;;;;;;;8.67;6.93;;;9.50;92.70;;;;;;5050094;28;20421;-67
2021/04/02 03:53:12;;;;;;;9.63;6.57;;;9.40;93.90;;;;;;5050204;28;21316;-67
2021/04/02 03:55:44;;;;;;;9.67;7.03;;;9.40;93.90;;;;;;5050270;28;20424;-68
2021/04/02 03:58:12;;;;;;;8.93;6.80;;;9.30;94.10;;;;;;5050260;28;20487;-67
2021/04/02 04:00:48;;;;;;;7.60;6.53;;;9.30;94.10;;;;;;5050285;28;20424;-67
2021/04/02 04:03:16;;;;;;;10.03;7.60;;;9.20;94.90;;;;;;5050177;28;20428;-67
2021/04/02 04:05:44;;;;;;;10.57;7.30;;;9.20;95.50;;;;;;5032036;28;20441;-67
2021/04/02 04:08:13;;;;;;;10.10;7.67;;;9.10;95.90;;;;;;5050192;28;20432;-67
2021/04/02 04:10:40;;;;;;;12.47;8.27;;;9.10;95.80;;;;;;5049361;28;20422;-68
2021/04/02 04:13:11;;;;;;;11.47;8.70;;;9.00;96.80;;;;;;5032041;28;20425;-67
2021/04/02 04:15:40;;;;;;;10.43;9.00;;;8.90;97.20;;;;;;5050066;28;20504;-67
2021/04/02 04:18:08;;;;;;;10.33;7.90;;;9.00;97.20;;;;;;5050074;28;20461;-67
2021/04/02 04:20:35;;;;;;;12.40;8.73;;;8.90;97.70;;;;;;5031944;28;20832;-67
2021/04/02 04:23:01;;;;;;;8.93;8.03;;;8.90;98.10;;;;;;5049945;28;21484;-67
2021/04/02 04:25:27;;;;;;;11.90;9.30;;;9.00;98.20;;;;;;5050048;28;20413;-68
2021/04/02 04:27:55;;;;;;;9.30;8.20;;;8.90;96.90;;;;;;5050085;28;20533;-66
2021/04/02 04:30:24;;;;;;;10.00;8.70;;;8.90;98.20;;;;;;5050087;28;20174;-67
2021/04/02 04:32:50;;;;;;;11.50;8.67;;;8.80;99.30;;;;;;5049853;28;20479;-65
2021/04/02 04:35:18;;;;;;;10.53;8.60;;;8.90;99.30;;;;;;5049951;28;20757;-66
2021/04/02 04:37:46;;;;;;;9.70;8.67;;;8.80;99.80;;;;;;5049756;28;20413;-67
2021/04/02 04:40:14;;;;;;;10.20;9.13;;;8.70;98.90;;;;;;5050308;28;20797;-66
2021/04/02 04:42:43;;;;;;;10.80;8.60;;;8.80;99.90;;;;;;5035263;28;20432;-66
2021/04/02 04:45:10;;;;;;;15.00;8.80;;;8.80;99.40;;;;;;5053755;28;20420;-66
2021/04/02 04:47:36;;;;;;;13.40;9.00;;;8.80;99.20;;;;;;5053516;28;20883;-66
2021/04/02 04:50:04;;;;;;;11.50;8.47;;;8.80;98.60;;;;;;5053473;28;20433;-66
2021/04/02 04:52:31;;;;;;;14.00;8.57;;;8.80;99.10;;;;;;5053343;28;20413;-68
2021/04/02 04:55:01;;;;;;;13.20;8.80;;;8.80;99.10;;;;;;5053470;28;20425;-69
2021/04/02 04:57:30;;;;;;;9.70;8.80;;;8.80;99.40;;;;;;5053169;28;20780;-68
2021/04/02 04:59:58;;;;;;;9.40;8.50;;;8.80;99.90;;;;;;5053205;28;20444;-66
2021/04/02 05:02:25;;;;;;;9.63;8.63;;;8.80;98.80;;;;;;5053258;28;20892;-67
2021/04/02 05:04:52;;;;;;;9.73;8.73;;;8.80;99.10;;;;;;5053074;28;20444;-67
2021/04/02 05:07:20;;;;;;;13.77;9.40;;;8.90;98.70;;;;;;5053308;28;20798;-68
2021/04/02 05:09:47;;;;;;;9.80;8.03;;;8.90;98.20;;;;;;5053179;28;20435;-68
2021/04/02 05:12:15;;;;;;;10.13;8.87;;;8.80;98.70;;;;;;5035576;28;20447;-69
2021/04/02 05:14:42;;;;;;;10.90;8.20;;;8.80;99.40;;;;;;5051618;28;20414;-69
2021/04/02 05:17:09;;;;;;;10.27;8.13;;;8.80;98.50;;;;;;5035488;28;20814;-69
2021/04/02 05:19:36;;;;;;;13.97;8.90;;;8.70;99.80;;;;;;5053156;28;20978;-67
2021/04/02 05:22:02;;;;;;;9.90;8.60;;;8.60;98.70;;;;;;5052768;28;20449;-66
2021/04/02 05:24:28;;;;;;;11.17;8.87;;;8.50;99.90;;;;;;5052916;28;20833;-66
2021/04/02 05:26:54;;;;;;;11.00;8.07;;;8.60;99.90;;;;;;5052941;28;20497;-66
2021/04/02 05:29:20;;;;;;;10.33;8.53;;;8.60;99.60;;;;;;5052948;28;20177;-67
2021/04/02 05:31:46;;;;;;;9.33;8.23;;;8.60;99.90;;;;;;5052966;28;20850;-67
2021/04/02 05:34:11;;;;;;;11.13;8.30;;;8.70;98.60;;;;;;5052435;28;20232;-68
2021/04/02 05:36:37;;;;;;;9.17;7.83;;;8.80;98.50;;;;;;5052821;28;20175;-68
2021/04/02 05:39:03;;;;;;;10.07;8.33;;;8.70;97.40;;;;;;5052526;28;20271;-68
2021/04/02 05:41:37;;;;;;;10.13;8.10;;;8.70;98.90;;;;;;5033915;28;20222;-67
2021/04/02 05:44:09;;;;;;;9.90;8.17;;;8.70;98.30;;;;;;5052774;28;20474;-67
2021/04/02 05:46:36;;;;;;;11.07;8.70;;;8.80;98.20;;;;;;5052575;28;20418;-68
2021/04/02 05:49:05;;;;;;;8.83;7.73;;;8.80;98.00;;;;;;5034478;28;20445;-67
2021/04/02 05:51:31;;;;;;;9.80;7.77;;;8.90;98.50;;;;;;5052432;28;20571;-69
2021/04/02 05:53:58;;;;;;;10.53;8.00;;;8.90;98.00;;;;;;5050674;28;20432;-67
2021/04/02 05:56:24;;;;;;;10.50;8.00;;;9.00;97.40;;;;;;5052090;28;20418;-67
2021/04/02 05:58:51;;;;;;;11.87;7.83;;;8.90;96.80;;;;;;5051909;28;20453;-67
2021/04/02 06:01:23;;;;;;;9.03;7.60;;;9.00;96.50;;;;;;5052156;28;20428;-69
2021/04/02 06:03:48;;;;;;;10.13;6.87;;;9.10;96.70;;;;;;5052355;28;20903;-68
2021/04/02 06:06:14;;;;;;;10.63;7.57;;;9.20;96.10;;;;;;5051944;28;20410;-68
2021/04/02 06:08:44;;;;;;;8.43;7.40;;;9.20;96.10;;;;;;5052325;28;20262;-69
2021/04/02 06:11:10;;;;;;;9.90;7.07;;;9.10;95.80;;;;;;5051931;28;20175;-68
2021/04/02 06:13:36;;;;;;;7.97;7.17;;;9.20;96.50;;;;;;5051892;28;20436;-68
2021/04/02 06:16:02;;;;;;;8.20;7.07;;;9.10;95.80;;;;;;5051665;28;20417;-67
2021/04/02 06:18:28;;;;;;;11.77;7.30;;;9.20;96.60;;;;;;5051737;28;20449;-69
2021/04/02 06:21:01;;;;;;;10.77;7.00;;;9.20;96.60;;;;;;5051914;28;20764;-67
2021/04/02 06:23:28;;;;;;;9.10;6.87;;;9.30;96.20;;;;;;5051424;28;20170;-67
2021/04/02 06:25:56;;;;;;;8.67;7.50;;;9.40;94.30;;;;;;5051570;28;20740;-69
2021/04/02 06:28:23;;;;;;;8.70;6.80;;;9.40;94.60;;;;;;5051619;28;20501;-69
2021/04/02 06:31:01;;;;;;;15.37;7.50;;;9.30;94.60;;;;;;5051655;28;20496;-68
2021/04/02 06:33:40;;;;;;;8.93;6.70;;;9.40;94.50;;;;;;5051546;28;20911;-69
2021/04/02 06:36:22;;;;;;;6.83;6.13;;;9.40;94.80;;;;;;5051470;28;20437;-68
2021/04/02 06:38:50;;;;;;;9.13;6.87;;;9.50;93.80;;;;;;5051235;28;20865;-68
2021/04/02 06:41:18;;;;;;;11.77;7.07;;;9.50;93.80;;;;;;5050758;28;20479;-68
2021/04/02 06:44:05;;;;;;;7.80;6.83;;;9.60;94.00;;;;;;5051110;28;20928;-68
2021/04/02 06:46:34;;;;;;;8.63;5.90;;;9.60;93.10;;;;;;5051239;28;20449;-68
2021/04/02 06:49:15;;;;;;;11.03;7.30;;;9.60;93.60;;;;;;5051327;28;20412;-67
2021/04/02 06:51:43;;;;;;;8.60;6.90;;;9.60;93.90;;;;;;5051239;28;20748;-67
2021/04/02 06:54:14;;;;;;;8.33;6.33;;;9.70;92.70;;;;;;5050832;28;20468;-66
2021/04/02 06:56:47;;;;;;;10.57;6.83;;;9.70;92.40;;;;;;5050556;28;20486;-67
2021/04/02 06:59:19;;;;;;;6.73;6.13;;;9.70;93.10;;;;;;5050696;28;20468;-67
2021/04/02 07:01:48;;;;;;;8.50;6.83;;;9.80;92.70;;;;;;5051047;28;20417;-67
2021/04/02 07:04:15;;;;;;;8.70;7.17;;;9.90;91.40;;;;;;5050284;28;20417;-67
2021/04/02 07:06:42;;;;;;;8.80;6.67;;;9.90;91.70;;;;;;5050857;28;20818;-66
2021/04/02 07:09:13;;;;;;;6.90;6.20;;;9.80;91.50;;;;;;5050913;28;20417;-67
2021/04/02 07:11:41;;;;;;;6.60;5.97;;;10.00;91.00;;;;;;5050781;28;20809;-64
2021/04/02 07:14:07;;;;;;;7.37;6.13;;;10.00;90.40;;;;;;5051077;28;20436;-67
2021/04/02 07:16:34;;;;;;;8.13;6.13;;;9.90;90.50;;;;;;5050619;28;20429;-67
2021/04/02 07:19:04;;;;;;;8.37;6.67;;;10.00;90.80;;;;;;5050907;28;20441;-68
2021/04/02 07:21:33;;;;;;;10.63;7.20;;;10.00;90.80;;;;;;5050371;28;20425;-67
2021/04/02 07:24:01;;;;;;;9.23;6.83;;;10.10;90.10;;;;;;5032835;28;20807;-66
2021/04/02 07:26:27;;;;;;;9.00;7.57;;;10.20;88.20;;;;;;5032689;28;20429;-67
2021/04/02 07:28:54;;;;;;;8.17;6.93;;;10.20;88.50;;;;;;5050784;28;20179;-67
2021/04/02 07:31:21;;;;;;;8.07;6.53;;;10.30;89.70;;;;;;5050740;28;20410;-68
2021/04/02 07:33:48;;;;;;;7.67;6.13;;;10.30;89.30;;;;;;5050797;28;20417;-66
2021/04/02 07:36:17;;;;;;;13.07;7.07;;;10.20;89.70;;;;;;5050530;28;20453;-66
2021/04/02 07:38:48;;;;;;;7.90;7.07;;;10.30;89.50;;;;;;5050234;28;20445;-66
2021/04/02 07:41:17;;;;;;;7.63;6.93;;;10.30;89.60;;;;;;5049740;28;20974;-67
2021/04/02 07:43:53;;;;;;;7.27;6.57;;;10.40;90.40;;;;;;5050438;28;20417;-66
2021/04/02 07:46:27;;;;;;;8.37;7.37;;;10.60;89.70;;;;;;5032498;28;20500;-68
2021/04/02 07:49:08;;;;;;;9.73;7.40;;;10.60;85.30;;;;;;5050336;28;20462;-67
2021/04/02 07:51:50;;;;;;;9.57;6.93;;;10.50;88.10;;;;;;5050382;28;20702;-67
2021/04/02 07:54:21;;;;;;;7.73;6.93;;;10.50;87.00;;;;;;5050153;28;20187;-67
2021/04/02 07:56:52;;;;;;;10.17;7.27;;;10.50;85.90;;;;;;5050150;28;20954;-67
2021/04/02 07:59:17;;;;;;;9.73;7.80;;;10.60;88.00;;;;;;5049798;28;20453;-68
2021/04/02 08:01:57;;;;;;;10.73;7.87;;;10.60;86.60;;;;;;5050280;28;20997;-68
2021/04/02 08:04:50;;;;;;;8.83;7.00;;;10.70;85.60;;;;;;5050241;28;20173;-68
2021/04/02 08:07:17;;;;;;;8.97;7.70;;;10.80;86.00;;;;;;5049971;28;20215;-68
2021/04/02 08:09:47;;;;;;;8.07;7.27;;;11.00;82.80;;;;;;5050158;28;20919;-68
2021/04/02 08:12:15;;;;;;;8.03;7.10;;;11.00;82.70;;;;;;5050364;28;20418;-67
2021/04/02 08:14:48;;;;;;;8.27;7.47;;;11.10;80.60;;;;;;5050281;28;20178;-70
2021/04/02 08:17:19;;;;;;;8.77;7.53;;;11.10;80.90;;;;;;5054053;28;20212;-68
2021/04/02 08:19:51;;;;;;;10.87;7.50;;;11.10;82.90;;;;;;5053894;28;20489;-72
2021/04/02 08:22:18;;;;;;;7.87;7.07;;;11.10;79.00;;;;;;5052613;28;20288;-68
2021/04/02 08:24:50;;;;;;;8.83;7.43;;;11.00;80.10;;;;;;5054026;28;20179;-68
2021/04/02 08:27:17;;;;;;;10.83;7.73;;;11.00;80.90;;;;;;5053963;28;20420;-68
2021/04/02 08:29:44;;;;;;;8.93;8.00;;;10.80;81.10;;;;;;5053538;28;20189;-68
2021/04/02 08:32:12;;;;;;;10.10;8.07;;;10.90;81.90;;;;;;5053912;28;20760;-67
2021/04/02 08:34:39;;;;;;;10.10;7.83;;;11.00;83.10;;;;;;5053597;28;20447;-69
2021/04/02 08:37:08;;;;;;;7.87;7.07;;;11.20;80.10;;;;;;5053943;28;20672;-67
2021/04/02 08:39:34;;;;;;;12.10;8.23;;;11.30;79.00;;;;;;5053539;28;20194;-68
2021/04/02 08:42:05;;;;;;;9.13;7.90;;;11.30;78.80;;;;;;5034423;28;20256;-67
2021/04/02 08:44:31;;;;;;;7.93;7.23;;;11.30;78.40;;;;;;5053230;28;20614;-67
2021/04/02 08:47:08;;;;;;;8.63;7.73;;;11.30;79.40;;;;;;5053931;28;20275;-69
2021/04/02 08:49:42;;;;;;;14.83;8.17;;;11.20;75.50;;;;;;5053582;28;20899;-67
2021/04/02 08:52:09;;;;;;;9.73;7.43;;;11.10;78.80;;;;;;5053352;28;20179;-68
2021/04/02 08:54:35;;;;;;;9.57;7.93;;;11.20;79.50;;;;;;5035483;28;20179;-68
2021/04/02 08:57:02;;;;;;;8.00;6.90;;;11.40;78.50;;;;;;5053009;28;20187;-67
2021/04/02 08:59:33;;;;;;;8.33;7.53;;;11.50;78.30;;;;;;5035275;28;20194;-67
2021/04/02 09:01:59;;;;;;;8.07;7.17;;;11.50;76.80;;;;;;5053496;28;20171;-67
2021/04/02 09:04:27;;;;;;;8.20;7.10;;;11.50;76.60;;;;;;5035211;28;20183;-69
2021/04/02 09:06:53;;;;;;;9.03;7.53;;;11.80;79.60;;;;;;5053102;28;20266;-68
2021/04/02 09:09:21;;;;;;;9.93;7.13;;;11.90;72.40;;;;;;5035216;28;20270;-67
2021/04/02 09:11:50;;;;;;;8.10;7.10;;;11.80;72.50;;;;;;5053060;28;20187;-68
2021/04/02 09:14:16;;;;;;;8.50;7.13;;;11.80;72.50;;;;;;5052915;28;20175;-67
2021/04/02 09:16:44;;;;;;;10.10;7.67;;;11.90;74.70;;;;;;5053217;28;20661;-68
2021/04/02 09:19:11;;;;;;;10.33;8.30;;;11.90;72.00;;;;;;5053030;28;20291;-68
2021/04/02 09:21:37;;;;;;;9.53;7.80;;;11.90;71.60;;;;;;5053066;28;20186;-68
2021/04/02 09:24:04;;;;;;;12.10;8.00;;;11.80;71.00;;;;;;5053223;28;20230;-66
2021/04/02 09:26:38;;;;;;;10.00;8.23;;;11.70;71.10;;;;;;5035162;28;20525;-66
2021/04/02 09:29:05;;;;;;;9.70;6.87;;;11.70;74.30;;;;;;5053012;28;20167;-67
2021/04/02 09:31:33;;;;;;;10.10;7.27;;;11.90;72.30;;;;;;5053182;28;20224;-68
2021/04/02 09:34:07;;;;;;;11.37;7.07;;;12.10;71.70;;;;;;5053050;28;20521;-69
2021/04/02 09:36:35;;;;;;;7.00;6.30;;;12.20;70.90;;;;;;5053030;28;20225;-67
2021/04/02 09:39:13;;;;;;;8.27;7.03;;;12.30;68.40;;;;;;5052929;28;20195;-67
2021/04/02 09:41:42;;;;;;;10.13;7.17;;;12.30;68.50;;;;;;5053278;28;20569;-68
2021/04/02 09:44:13;;;;;;;9.80;6.70;;;12.30;70.20;;;;;;5052825;28;20659;-66
2021/04/02 09:46:42;;;;;;;8.20;7.30;;;12.30;68.80;;;;;;5051438;28;20174;-66
2021/04/02 09:49:22;;;;;;;9.13;7.13;;;12.40;69.40;;;;;;5052233;28;20256;-67
2021/04/02 09:51:49;;;;;;;9.60;7.40;;;12.40;70.10;;;;;;5052321;28;20265;-66
2021/04/02 09:54:16;;;;;;;9.30;6.90;;;12.50;66.50;;;;;;5052691;28;20506;-68
2021/04/02 09:56:42;;;;;;;10.43;7.43;;;12.60;67.00;;;;;;5052439;28;20186;-67
2021/04/02 09:59:09;;;;;;;9.67;7.47;;;12.70;68.30;;;;;;5052163;28;20344;-68
2021/04/02 10:01:36;;;;;;;8.43;7.37;;;12.80;66.30;;;;;;5052352;28;20177;-67
2021/04/02 10:04:03;;;;;;;8.50;7.40;;;12.70;65.80;;;;;;5052610;28;20171;-68
2021/04/02 10:06:29;;;;;;;8.87;7.37;;;12.70;65.70;;;;;;5034399;28;20179;-66
2021/04/02 10:08:55;;;;;;;7.77;6.57;;;12.60;63.80;;;;;;5052524;28;20236;-68
2021/04/02 10:11:24;;;;;;;9.60;7.30;;;12.50;67.20;;;;;;5052000;28;20179;-68
2021/04/02 10:13:51;;;;;;;11.53;7.20;;;12.60;66.70;;;;;;5052103;28;20202;-68
2021/04/02 10:16:17;;;;;;;8.10;7.30;;;12.20;66.00;;;;;;5051844;28;20207;-65
2021/04/02 10:18:45;;;;;;;7.57;6.57;;;12.20;68.10;;;;;;5051988;28;20635;-66
2021/04/02 10:21:10;;;;;;;7.90;7.10;;;12.40;67.80;;;;;;5051764;28;20170;-67
2021/04/02 10:23:42;;;;;;;6.50;5.90;;;12.60;66.60;;;;;;5051853;28;20205;-67
2021/04/02 10:26:08;;;;;;;7.17;6.47;;;12.90;65.20;;;;;;5051756;28;20625;-65
2021/04/02 10:28:34;;;;;;;6.90;6.23;;;13.00;63.10;;;;;;5052009;28;20216;-66
2021/04/02 10:31:00;;;;;;;7.37;6.67;;;12.90;62.40;;;;;;5051951;28;20187;-67
2021/04/02 10:33:29;;;;;;;10.77;7.57;;;12.80;63.10;;;;;;5051574;28;20183;-67
2021/04/02 10:35:55;;;;;;;7.10;6.40;;;12.90;63.90;;;;;;5051729;28;20228;-66
2021/04/02 10:38:20;;;;;;;6.60;6.00;;;13.10;64.10;;;;;;5051046;28;20194;-67
2021/04/02 10:40:47;;;;;;;7.00;6.30;;;13.20;63.40;;;;;;5051564;28;20195;-67
2021/04/02 10:43:12;;;;;;;6.50;5.90;;;13.40;62.10;;;;;;5051686;28;20171;-68
2021/04/02 10:45:38;;;;;;;6.77;6.17;;;13.60;61.30;;;;;;5051461;28;20633;-69
2021/04/02 10:48:04;;;;;;;6.90;6.30;;;13.80;59.40;;;;;;5051540;28;20179;-67
2021/04/02 10:50:30;;;;;;;7.40;6.70;;;13.90;58.90;;;;;;5051333;28;20629;-64
2021/04/02 10:52:56;;;;;;;8.77;6.50;;;13.90;58.50;;;;;;5051304;28;20187;-67
2021/04/02 10:55:23;;;;;;;7.67;6.37;;;13.70;58.60;;;;;;5051553;28;20174;-66
2021/04/02 10:57:50;;;;;;;7.67;6.87;;;13.30;57.60;;;;;;5051143;28;20175;-67
2021/04/02 11:00:17;;;;;;;6.33;5.70;;;13.10;60.60;;;;;;5051379;28;20226;-66
2021/04/02 11:02:43;;;;;;;6.67;6.07;;;13.30;62.30;;;;;;5050891;28;20652;-67
2021/04/02 11:05:10;;;;;;;6.70;6.10;;;13.60;59.70;;;;;;5051345;28;20171;-67
2021/04/02 11:07:36;;;;;;;5.97;5.07;;;13.80;59.20;;;;;;5051420;28;20183;-68
2021/04/02 11:10:08;;;;;;;5.90;5.23;;;14.10;58.70;;;;;;5051309;28;20225;-67
2021/04/02 11:12:33;;;;;;;6.20;5.20;;;14.30;57.80;;;;;;5033639;28;20187;-68
2021/04/02 11:14:59;;;;;;;5.20;4.80;;;14.50;58.00;;;;;;5050795;28;20233;-68
2021/04/02 11:17:26;;;;;;;6.17;5.47;;;14.60;57.50;;;;;;5050965;28;20187;-68
2021/04/02 11:19:54;;;;;;;5.67;5.17;;;14.60;55.80;;;;;;5050649;28;20202;-66
2021/04/02 11:22:20;;;;;;;5.40;4.90;;;14.60;55.80;;;;;;5051431;28;20194;-66
2021/04/02 11:24:46;;;;;;;6.30;5.07;;;14.70;54.80;;;;;;5050807;28;20183;-66
2021/04/02 11:27:11;;;;;;;5.03;4.57;;;14.90;56.80;;;;;;5050897;28;20175;-67
2021/04/02 11:29:37;;;;;;;6.00;5.40;;;15.10;56.00;;;;;;5050842;28;20187;-66
2021/04/02 11:32:06;;;;;;;5.73;5.23;;;15.10;55.00;;;;;;5050767;28;20185;-69
2021/04/02 11:34:31;;;;;;;5.30;4.80;;;15.00;56.00;;;;;;5050782;28;20186;-66
2021/04/02 11:36:58;;;;;;;6.40;4.83;;;14.90;57.00;;;;;;5050593;28;20566;-65
2021/04/02 11:39:24;;;;;;;8.00;5.03;;;14.90;56.10;;;;;;5050454;28;20665;-66
2021/04/02 11:41:50;;;;;;;5.80;5.30;;;15.10;55.90;;;;;;5049919;28;20222;-67
2021/04/02 11:44:16;;;;;;;6.10;5.60;;;15.30;55.70;;;;;;5050034;28;20189;-67
2021/04/02 11:46:41;;;;;;;5.43;4.93;;;15.20;54.60;;;;;;5050848;28;20207;-65
2021/04/02 11:49:07;;;;;;;7.03;5.03;;;15.30;55.00;;;;;;5050709;28;20663;-67
2021/04/02 11:51:33;;;;;;;6.07;4.83;;;15.50;54.80;;;;;;5050317;28;20194;-67
2021/04/02 11:53:59;;;;;;;5.50;5.00;;;15.70;53.90;;;;;;5050742;28;20692;-66
2021/04/02 11:56:24;;;;;;;4.73;4.23;;;16.20;53.20;;;;;;5050380;28;20214;-66
2021/04/02 11:58:50;;;;;;;8.87;5.23;;;16.20;52.50;;;;;;5050449;28;20203;-66
2021/04/02 12:01:15;;;;;;;6.90;5.13;;;16.30;51.30;;;;;;5050312;28;20210;-66
2021/04/02 12:03:41;;;;;;;5.73;5.07;;;16.40;51.90;;;;;;5050684;28;20167;-67
2021/04/02 12:06:07;;;;;;;5.47;4.93;;;16.60;51.60;;;;;;5050833;28;20585;-65
2021/04/02 12:08:32;;;;;;;6.97;4.90;;;16.70;50.90;;;;;;5050079;28;20214;-69
2021/04/02 12:10:58;;;;;;;4.80;4.37;;;16.80;50.60;;;;;;5050349;28;20633;-68
2021/04/02 12:13:23;;;;;;;5.37;4.60;;;17.00;50.60;;;;;;5050227;28;20237;-65
2021/04/02 12:15:49;;;;;;;6.87;4.50;;;16.80;49.60;;;;;;5050210;28;20206;-67
2021/04/02 12:18:15;;;;;;;5.57;4.53;;;16.70;50.70;;;;;;5050368;28;20179;-66
2021/04/02 12:20:41;;;;;;;5.87;4.60;;;16.90;50.40;;;;;;5050132;28;20207;-68
2021/04/02 12:23:06;;;;;;;4.97;4.43;;;17.20;49.40;;;;;;5049669;28;20179;-65
2021/04/02 12:25:32;;;;;;;5.07;4.57;;;17.40;50.00;;;;;;5049571;28;20186;-67
2021/04/02 12:27:58;;;;;;;5.63;4.93;;;17.40;49.60;;;;;;5049754;28;20304;-67
2021/04/02 12:30:24;;;;;;;5.80;5.30;;;17.50;49.50;;;;;;5049866;28;20171;-65
2021/04/02 12:32:49;;;;;;;5.50;5.00;;;17.50;48.10;;;;;;5049773;28;20277;-65
2021/04/02 12:35:15;;;;;;;4.97;4.57;;;17.60;48.50;;;;;;5049865;28;20232;-67
2021/04/02 12:37:42;;;;;;;4.93;4.53;;;17.70;47.50;;;;;;5049980;28;20535;-65
2021/04/02 12:40:27;;;;;;;5.87;5.23;;;17.90;48.20;;;;;;5048500;28;20542;-66
2021/04/02 12:42:55;;;;;;;5.03;4.63;;;18.00;45.80;;;;;;5049858;28;20728;-65
2021/04/02 12:45:20;;;;;;;5.10;4.60;;;18.30;45.90;;;;;;5049569;28;20207;-66
2021/04/02 12:47:46;;;;;;;4.73;4.33;;;18.70;45.30;;;;;;5049847;28;20203;-68
2021/04/02 12:50:18;;;;;;;4.87;4.47;;;18.90;44.00;;;;;;5049593;28;20195;-67
2021/04/02 12:52:45;;;;;;;6.20;4.37;;;19.10;43.30;;;;;;5049840;28;21605;-67
2021/04/02 12:55:13;;;;;;;5.80;5.20;;;19.30;42.50;;;;;;5049581;28;20186;-65